Holly Ridge, Louisiana
Current Conditions -  °F | °C
As of 12:53 AM on Sunday 21 Dec 2014 (Local Time) from KMLU Reporting Station
Clear Clear  
Wind Chill: 33°   Ceiling: Unl
Heat Index: 38°   Visibility: 10mi
Dew Point: 37°   Wind: 6mph
Humidity: 97%   Direction: 40°NE
Pressure: 30.21"   Gusts: NA
Location:  32.4475°N, 91.7992°W
Report Text: KMLU 210653Z AUTO 04005KT 10SM CLR 03/03 A3021 RMK AO2 SLP229 T00330028
Loading
Personal Weather Stations






























Interactive Weather Map New forecast layout! Learn more

10-Day Weather Forecast

Advertisements
Track Severe Weather on mobile